Time;durP1;ratioP1;P1;durP2;ratioP2;P2;SDS_P1;SDS_P2;PMS_P1;PMS_P2;Temp;Humidity;BMP_temperature;BMP_pressure;BME280_temperature;BME280_humidity;BME280_pressure;Samples;Min_cycle;Max_cycle;Signal;HPM_P1;HPM_P2
2022/12/11 00:01:45;;;;;;;60.72;32.28;;;;;;;1.82;100.00;101064.66;5002713;28;20045;-50
2022/12/11 00:04:13;;;;;;;65.15;33.55;;;;;;;1.82;100.00;101067.34;5008391;28;20519;-49
2022/12/11 00:06:41;;;;;;;61.67;32.78;;;;;;;1.82;100.00;101067.34;4995226;28;20508;-50
2022/12/11 00:09:09;;;;;;;66.38;33.92;;;;;;;1.83;100.00;101061.78;4977559;28;20062;-49
2022/12/11 00:11:36;;;;;;;58.90;32.17;;;;;;;1.84;100.00;101055.34;4970506;28;20079;-47
2022/12/11 00:14:04;;;;;;;58.63;31.83;;;;;;;1.87;100.00;101059.50;5011928;28;20097;-49
2022/12/11 00:16:32;;;;;;;61.17;32.47;;;;;;;1.83;100.00;101058.28;4998359;28;20045;-48
2022/12/11 00:18:59;;;;;;;59.08;32.88;;;;;;;1.82;100.00;101054.72;5011413;28;20081;-48
2022/12/11 00:21:27;;;;;;;60.05;33.80;;;;;;;1.84;100.00;101049.16;5005071;28;20504;-51
2022/12/11 00:23:54;;;;;;;60.40;32.42;;;;;;;1.86;100.00;101047.09;5012371;28;20084;-48
2022/12/11 00:26:22;;;;;;;58.13;30.50;;;;;;;1.87;100.00;101043.38;5000787;28;20116;-47
2022/12/11 00:28:55;;;;;;;58.17;31.10;;;;;;;1.90;100.00;101045.66;4990058;28;20050;-50
2022/12/11 00:31:23;;;;;;;64.30;33.88;;;;;;;1.87;100.00;101054.13;4989738;28;20049;-49
2022/12/11 00:33:51;;;;;;;61.83;33.25;;;;;;;1.85;100.00;101053.50;4998576;28;20042;-50
2022/12/11 00:36:22;;;;;;;57.55;31.50;;;;;;;1.85;100.00;101054.34;4986406;28;20478;-46
2022/12/11 00:38:50;;;;;;;59.85;32.10;;;;;;;1.85;100.00;101064.25;5008767;28;20046;-49
2022/12/11 00:41:18;;;;;;;59.17;32.08;;;;;;;1.83;100.00;101058.28;4994486;28;20053;-48
2022/12/11 00:43:46;;;;;;;62.58;32.95;;;;;;;1.86;100.00;101057.84;5015465;28;20493;-50
2022/12/11 00:46:14;;;;;;;57.25;31.42;;;;;;;1.87;100.00;101060.31;5014731;28;20037;-47
2022/12/11 00:48:42;;;;;;;60.92;32.70;;;;;;;1.86;100.00;101057.84;4970038;28;20101;-52
2022/12/11 00:51:10;;;;;;;60.55;33.42;;;;;;;1.86;100.00;101055.16;5015740;28;20046;-46
2022/12/11 00:53:38;;;;;;;60.05;33.03;;;;;;;1.88;100.00;101050.41;5015662;28;20056;-48
2022/12/11 00:56:17;;;;;;;62.03;33.28;;;;;;;1.87;100.00;101048.75;4983974;28;20045;-48
2022/12/11 00:58:46;;;;;;;58.63;32.63;;;;;;;1.86;100.00;101052.47;5006953;28;20054;-49
2022/12/11 01:01:17;;;;;;;48.72;26.52;;;;;;;1.94;100.00;101046.06;5015079;28;20041;-47
2022/12/11 01:03:45;;;;;;;54.20;29.85;;;;;;;1.96;100.00;101047.53;5015372;28;20038;-48
2022/12/11 01:06:15;;;;;;;55.10;30.17;;;;;;;1.97;100.00;101041.09;5015184;28;20038;-51
2022/12/11 01:08:44;;;;;;;50.17;26.88;;;;;;;1.96;100.00;101039.47;5000837;28;20501;-52
2022/12/11 01:11:13;;;;;;;50.88;27.75;;;;;;;1.96;100.00;101031.41;4987906;28;20042;-50
2022/12/11 01:13:41;;;;;;;56.70;30.55;;;;;;;1.94;100.00;101038.84;4998112;28;20042;-49
2022/12/11 01:16:13;;;;;;;59.53;31.58;;;;;;;1.94;100.00;101038.00;4998859;28;20046;-51
2022/12/11 01:18:41;;;;;;;44.97;25.35;;;;;;;1.96;100.00;101041.31;4993765;28;20050;-52
2022/12/11 01:21:12;;;;;;;47.92;25.60;;;;;;;1.95;100.00;101040.50;5001509;28;20054;-50
2022/12/11 01:23:40;;;;;;;57.08;30.67;;;;;;;1.96;100.00;101044.00;4989282;28;20058;-50
2022/12/11 01:26:12;;;;;;;53.53;29.70;;;;;;;1.97;100.00;101035.72;5012892;28;20046;-50
2022/12/11 01:28:41;;;;;;;49.80;26.80;;;;;;;1.97;100.00;101038.41;4986124;28;20047;-52
2022/12/11 01:31:10;;;;;;;58.47;31.02;;;;;;;1.98;100.00;101041.94;5012284;28;20448;-51
2022/12/11 01:33:38;;;;;;;55.88;29.80;;;;;;;1.98;100.00;101042.78;4989963;28;20070;-50
2022/12/11 01:36:14;;;;;;;54.05;28.40;;;;;;;1.98;100.00;101045.47;4997234;28;20042;-48
2022/12/11 01:38:41;;;;;;;56.27;29.57;;;;;;;1.98;100.00;101042.78;5007979;28;20432;-49
2022/12/11 01:41:10;;;;;;;63.15;32.60;;;;;;;1.97;100.00;101041.09;5010055;28;20296;-50
2022/12/11 01:44:06;;;;;;;60.72;32.47;;;;;;;1.97;100.00;101042.97;4975666;28;20039;-50
2022/12/11 01:46:35;;;;;;;53.75;30.70;;;;;;;1.98;100.00;101044.66;4993412;28;20076;-51
2022/12/11 01:49:10;;;;;;;61.97;33.17;;;;;;;2.00;100.00;101046.09;5010285;28;20492;-51
2022/12/11 01:51:47;;;;;;;45.53;26.73;;;;;;;1.99;100.00;101036.34;5004836;28;20486;-48
2022/12/11 01:54:16;;;;;;;57.17;29.63;;;;;;;2.00;100.00;101037.19;4966210;28;20097;-48
2022/12/11 01:56:45;;;;;;;54.55;30.23;;;;;;;1.99;100.00;101030.97;4995129;28;20042;-48
2022/12/11 01:59:15;;;;;;;54.13;29.00;;;;;;;2.00;100.00;101034.53;4983632;28;20058;-50
2022/12/11 02:01:52;;;;;;;57.20;31.08;;;;;;;1.98;100.00;101032.03;5011110;28;20042;-50
2022/12/11 02:04:20;;;;;;;53.78;30.88;;;;;;;1.97;100.00;101033.03;5003726;28;20046;-50
2022/12/11 02:06:49;;;;;;;46.80;26.52;;;;;;;1.98;100.00;101026.66;4976643;28;20046;-50
2022/12/11 02:09:27;;;;;;;56.38;30.48;;;;;;;2.00;100.00;101021.09;5001195;28;20529;-49
2022/12/11 02:12:29;;;;;;;52.97;29.85;;;;;;;2.03;100.00;101021.47;4980461;28;20046;-50
2022/12/11 02:15:15;;;;;;;46.13;24.45;;;;;;;2.03;100.00;101026.84;5002304;28;20073;-49
2022/12/11 02:17:54;;;;;;;45.65;26.20;;;;;;;2.06;100.00;101023.75;4991746;28;20053;-49
2022/12/11 02:20:27;;;;;;;50.97;27.67;;;;;;;2.05;100.00;101018.59;4995848;28;20053;-51
2022/12/11 02:22:57;;;;;;;47.17;28.13;;;;;;;2.05;100.00;101018.59;5013955;28;20038;-49
2022/12/11 02:25:52;;;;;;;55.67;31.23;;;;;;;2.04;100.00;101012.38;5006825;28;20038;-49
2022/12/11 02:29:04;;;;;;;49.30;26.75;;;;;;;2.06;100.00;101006.81;5010930;28;20073;-51
2022/12/11 02:31:38;;;;;;;52.28;29.50;;;;;;;2.04;100.00;101007.00;4899922;29;20051;-50
2022/12/11 02:34:12;;;;;;;39.30;24.35;;;;;;;2.05;100.00;101011.34;4899649;29;20047;-52
2022/12/11 02:36:44;;;;;;;52.33;29.83;;;;;;;2.07;100.00;101013.84;4950935;28;20058;-49
2022/12/11 02:39:14;;;;;;;38.72;21.90;;;;;;;2.11;100.00;101015.88;4987196;28;20077;-50
2022/12/11 02:41:46;;;;;;;41.83;25.42;;;;;;;2.12;100.00;101014.88;4995973;28;20049;-48
2022/12/11 02:44:16;;;;;;;43.60;25.38;;;;;;;2.11;100.00;101013.19;5013513;28;20069;-49
2022/12/11 02:46:44;;;;;;;47.13;27.35;;;;;;;2.09;100.00;101004.53;4994050;28;20053;-47
2022/12/11 02:49:12;;;;;;;44.70;25.83;;;;;;;2.10;100.00;101010.75;5012294;28;20447;-50
2022/12/11 02:51:42;;;;;;;47.35;26.88;;;;;;;2.09;100.00;101003.69;4996375;28;20115;-47
2022/12/11 02:54:19;;;;;;;48.38;28.67;;;;;;;2.08;100.00;101007.44;4995744;28;20420;-48
2022/12/11 02:57:04;;;;;;;45.55;26.65;;;;;;;2.10;100.00;101008.88;4990602;28;20042;-48
2022/12/11 02:59:44;;;;;;;49.47;29.00;;;;;;;2.09;100.00;101001.84;4989384;28;20062;-49
2022/12/11 03:02:12;;;;;;;45.92;26.65;;;;;;;2.08;100.00;101002.88;4962284;28;20110;-48
2022/12/11 03:04:42;;;;;;;40.75;24.67;;;;;;;2.10;100.00;100995.44;4969231;28;20042;-48
2022/12/11 03:07:16;;;;;;;41.58;22.83;;;;;;;2.10;100.00;100994.63;4984732;28;20445;-49
2022/12/11 03:09:45;;;;;;;39.95;23.17;;;;;;;2.11;100.00;100994.38;5012715;28;20502;-49
2022/12/11 03:12:17;;;;;;;37.33;22.60;;;;;;;2.14;100.00;100995.81;4963973;28;20109;-49
2022/12/11 03:14:45;;;;;;;36.90;21.83;;;;;;;2.15;100.00;100989.44;5011232;28;20499;-48
2022/12/11 03:17:25;;;;;;;33.17;21.13;;;;;;;2.13;100.00;100989.63;5004883;28;20500;-49
2022/12/11 03:20:11;;;;;;;36.00;22.08;;;;;;;2.14;100.00;100990.44;4978457;28;20052;-49
2022/12/11 03:22:47;;;;;;;33.80;20.42;;;;;;;2.16;100.00;100987.56;4981283;28;20038;-49
2022/12/11 03:25:28;;;;;;;36.50;23.08;;;;;;;2.17;100.00;100983.88;4993354;28;20042;-49
2022/12/11 03:28:24;;;;;;;38.28;23.77;;;;;;;2.16;100.00;100984.88;5004550;28;20042;-50
2022/12/11 03:30:51;;;;;;;;;;;;;;;2.18;100.00;100982.81;5005595;28;20105;-48
2022/12/11 03:33:24;;;;;;;33.72;21.38;;;;;;;2.16;100.00;100983.00;5007032;28;20299;-50
2022/12/11 03:35:55;;;;;;;35.88;22.70;;;;;;;2.16;100.00;100982.19;4995611;28;20045;-50
2022/12/11 03:38:49;;;;;;;29.73;19.70;;;;;;;2.17;100.00;100982.00;4978558;28;20413;-49
2022/12/11 03:41:18;;;;;;;33.80;22.05;;;;;;;2.17;100.00;100983.88;4978970;28;20050;-49
2022/12/11 03:43:47;;;;;;;28.40;18.95;;;;;;;2.19;100.00;100981.75;4991514;28;20042;-49
2022/12/11 03:46:16;;;;;;;33.53;20.60;;;;;;;2.17;100.00;100975.78;5005034;28;20073;-48
2022/12/11 03:48:45;;;;;;;32.90;21.80;;;;;;;2.16;100.00;100982.19;5006791;28;20546;-49
2022/12/11 03:51:13;;;;;;;33.78;21.85;;;;;;;2.15;100.00;100983.25;4984323;28;20089;-48
2022/12/11 03:53:41;;;;;;;32.40;21.10;;;;;;;2.11;100.00;100986.31;4989737;28;20519;-49
2022/12/11 03:56:09;;;;;;;28.48;18.88;;;;;;;2.11;100.00;100972.88;4974550;28;20510;-49
2022/12/11 03:58:37;;;;;;;32.38;20.35;;;;;;;2.16;100.00;100976.81;4976029;28;20047;-47
2022/12/11 04:01:09;;;;;;;33.30;22.00;;;;;;;2.14;100.00;100977.00;4958966;28;20038;-48
2022/12/11 04:03:37;;;;;;;29.98;20.75;;;;;;;2.13;100.00;100978.88;4989965;28;20043;-48
2022/12/11 04:06:05;;;;;;;32.10;21.02;;;;;;;2.16;100.00;100979.50;4978805;28;20070;-46
2022/12/11 04:08:32;;;;;;;30.38;20.48;;;;;;;2.13;100.00;100967.31;4989379;28;20050;-46
2022/12/11 04:15:00;;;;;;;30.02;20.67;;;;;;;2.13;100.00;100965.44;4977568;28;20387;-50
2022/12/11 04:16:37;;;;;;;29.60;20.33;;;;;;;2.15;100.00;100964.44;4985956;28;20425;-51
2022/12/11 04:24:37;;;;;;;25.75;17.88;;;;;;;2.17;100.00;100973.13;4979528;28;20387;-50
2022/12/11 04:27:05;;;;;;;23.13;15.73;;;;;;;2.15;100.00;100969.81;4980527;28;20046;-50
2022/12/11 04:29:32;;;;;;;22.05;16.30;;;;;;;2.10;100.00;100971.25;4967238;28;20086;-51
2022/12/11 04:32:00;;;;;;;20.67;15.55;;;;;;;2.09;100.00;100966.91;4990369;28;20038;-47
2022/12/11 04:34:28;;;;;;;21.50;14.73;;;;;;;2.08;100.00;100965.25;4978713;28;20101;-49
2022/12/11 04:36:55;;;;;;;20.77;15.20;;;;;;;2.07;100.00;100960.91;4978952;28;20097;-49
2022/12/11 04:39:23;;;;;;;20.88;14.98;;;;;;;2.07;100.00;100962.78;4975587;28;20042;-50
2022/12/11 04:41:50;;;;;;;19.92;14.32;;;;;;;2.08;100.00;100959.06;4981559;28;20437;-48
2022/12/11 04:44:18;;;;;;;18.58;13.68;;;;;;;2.05;100.00;100965.66;4978561;28;20050;-51
2022/12/11 04:46:46;;;;;;;19.63;15.15;;;;;;;2.01;100.00;100964.44;4986218;28;20043;-48
2022/12/11 04:49:13;;;;;;;17.52;14.25;;;;;;;1.88;100.00;100959.88;4976479;28;20039;-51
2022/12/11 04:51:41;;;;;;;20.10;14.18;;;;;;;1.83;100.00;100966.94;4976215;28;20046;-48
2022/12/11 04:54:08;;;;;;;19.33;14.77;;;;;;;1.81;100.00;100972.50;4981336;28;20039;-49
2022/12/11 04:56:36;;;;;;;18.63;14.10;;;;;;;1.81;100.00;100969.00;4987654;28;20090;-48
2022/12/11 04:59:04;;;;;;;19.50;14.15;;;;;;;1.83;100.00;100966.94;4977539;28;20061;-50
2022/12/11 05:01:31;;;;;;;18.67;13.23;;;;;;;1.90;100.00;100968.56;4985343;28;20047;-48
2022/12/11 05:03:59;;;;;;;16.77;11.68;;;;;;;1.96;100.00;100966.91;4979037;28;20122;-51
2022/12/11 05:06:27;;;;;;;16.70;12.93;;;;;;;1.97;100.00;100968.56;4976903;28;20035;-49
2022/12/11 05:08:54;;;;;;;16.98;12.23;;;;;;;1.97;100.00;100960.50;4975213;28;20070;-50
2022/12/11 05:11:22;;;;;;;17.98;12.77;;;;;;;2.00;100.00;100973.53;4981637;28;20093;-48
2022/12/11 05:13:50;;;;;;;17.67;12.95;;;;;;;2.01;100.00;100975.16;4958174;28;20038;-49
2022/12/11 05:16:18;;;;;;;15.48;11.35;;;;;;;2.05;100.00;100972.91;4979837;28;20113;-50
2022/12/11 05:18:46;;;;;;;18.25;11.88;;;;;;;2.08;100.00;100967.13;4976170;28;20063;-48
2022/12/11 05:21:14;;;;;;;17.48;12.82;;;;;;;2.07;100.00;100968.97;4978772;28;20046;-46
2022/12/11 05:23:42;;;;;;;17.05;12.57;;;;;;;2.07;100.00;100966.28;4989172;28;20042;-47
2022/12/11 05:26:19;;;;;;;16.83;12.32;;;;;;;2.09;100.00;100966.91;4987938;28;20038;-47
2022/12/11 05:28:52;;;;;;;15.55;11.70;;;;;;;2.09;100.00;100966.06;4972556;28;20501;-48
2022/12/11 05:31:22;;;;;;;16.80;12.68;;;;;;;2.09;100.00;100966.91;5013827;28;20452;-46
2022/12/11 05:33:50;;;;;;;16.98;12.35;;;;;;;2.09;100.00;100955.31;5014892;28;20045;-48
2022/12/11 05:36:23;;;;;;;16.52;12.75;;;;;;;2.09;100.00;100958.84;4991129;28;20038;-46
2022/12/11 05:38:52;;;;;;;17.73;11.60;;;;;;;2.07;100.00;100947.47;5000845;28;20456;-46
2022/12/11 05:41:22;;;;;;;17.83;12.15;;;;;;;2.07;100.00;100946.66;4996993;28;20069;-47
2022/12/11 05:43:50;;;;;;;16.10;11.88;;;;;;;2.06;100.00;100945.81;4994861;28;20109;-48
2022/12/11 05:46:20;;;;;;;16.95;12.10;;;;;;;2.06;100.00;100945.81;4997518;28;20042;-48
2022/12/11 05:48:49;;;;;;;16.98;11.90;;;;;;;2.07;100.00;100941.28;4969713;28;20071;-47
2022/12/11 05:51:18;;;;;;;16.10;11.20;;;;;;;2.08;100.00;100934.84;5006885;28;20046;-49
2022/12/11 05:53:47;;;;;;;19.75;12.80;;;;;;;2.08;100.00;100942.91;4997952;28;20090;-46
2022/12/11 05:56:17;;;;;;;17.60;12.65;;;;;;;2.08;100.00;100933.00;5004752;28;20088;-48
2022/12/11 05:58:47;;;;;;;17.73;12.23;;;;;;;2.10;100.00;100939.00;5010249;28;20054;-48
2022/12/11 06:01:20;;;;;;;18.85;12.40;;;;;;;2.11;100.00;100948.69;5004850;28;20046;-46
2022/12/11 06:03:48;;;;;;;19.15;13.15;;;;;;;2.08;100.00;100946.44;5007829;28;20045;-49
2022/12/11 06:06:16;;;;;;;20.30;13.48;;;;;;;2.08;100.00;100945.63;4975611;28;20066;-50
2022/12/11 06:08:43;;;;;;;19.02;13.38;;;;;;;2.05;100.00;100954.09;4965131;28;20568;-50
2022/12/11 06:11:13;;;;;;;18.17;12.55;;;;;;;2.05;100.00;100957.59;4974999;28;20058;-51
2022/12/11 06:13:44;;;;;;;12.65;8.93;;;;;;;2.18;100.00;100958.63;4973977;28;20078;-49
2022/12/11 06:16:12;;;;;;;11.98;8.70;;;;;;;2.24;100.00;100958.63;4969419;28;20085;-49
2022/12/11 06:18:42;;;;;;;12.82;8.30;;;;;;;2.34;100.00;100955.50;4977081;28;20122;-50
2022/12/11 06:21:14;;;;;;;15.63;9.60;;;;;;;2.40;100.00;100953.81;4982458;28;20046;-49
2022/12/11 06:23:42;;;;;;;18.02;12.80;;;;;;;2.27;100.00;100952.00;4959927;28;20501;-50
2022/12/11 06:26:10;;;;;;;17.27;13.10;;;;;;;2.16;100.00;100958.00;4980407;28;20069;-53
2022/12/11 06:28:38;;;;;;;18.08;13.18;;;;;;;2.09;100.00;100948.09;4986703;28;20042;-48
2022/12/11 06:31:06;;;;;;;17.42;12.75;;;;;;;2.10;100.00;100947.06;5013642;28;20046;-51
2022/12/11 06:33:35;;;;;;;17.13;13.00;;;;;;;2.08;100.00;100949.13;5013875;28;20046;-53
2022/12/11 06:36:07;;;;;;;19.65;13.68;;;;;;;2.10;100.00;100954.28;5003322;28;20038;-48
2022/12/11 06:38:35;;;;;;;16.08;11.18;;;;;;;2.13;100.00;100951.19;5013983;28;20120;-49
2022/12/11 06:41:04;;;;;;;15.70;10.95;;;;;;;2.15;100.00;100945.59;5013177;28;20063;-46
2022/12/11 06:43:32;;;;;;;16.92;8.60;;;;;;;2.25;100.00;100954.88;4996186;28;20050;-47
2022/12/11 06:46:06;;;;;;;14.80;10.82;;;;;;;2.30;100.00;100951.56;4993176;28;20046;-49
2022/12/11 06:48:34;;;;;;;21.40;13.13;;;;;;;2.24;100.00;100947.88;4996100;28;20552;-48
2022/12/11 06:51:17;;;;;;;19.80;14.73;;;;;;;2.19;100.00;100954.88;4996316;28;20072;-50
2022/12/11 06:53:49;;;;;;;19.88;14.07;;;;;;;2.16;100.00;100945.38;5013542;28;20042;-50
2022/12/11 06:56:17;;;;;;;17.75;13.68;;;;;;;2.14;100.00;100944.75;4997596;28;20073;-48
2022/12/11 06:58:45;;;;;;;20.23;13.82;;;;;;;2.13;100.00;100943.13;5013359;28;20049;-48
2022/12/11 07:01:21;;;;;;;20.40;14.43;;;;;;;2.13;100.00;100945.81;5013155;28;20056;-50
2022/12/11 07:03:51;;;;;;;20.98;14.55;;;;;;;2.11;100.00;100943.31;4996199;28;20042;-48
2022/12/11 07:06:19;;;;;;;16.42;12.05;;;;;;;2.13;100.00;100948.50;5000499;28;20038;-49
2022/12/11 07:08:46;;;;;;;18.85;13.25;;;;;;;2.13;100.00;100946.63;4987776;28;20065;-48
2022/12/11 07:11:15;;;;;;;18.45;13.43;;;;;;;2.15;100.00;100943.75;4979074;28;20046;-47
2022/12/11 07:13:43;;;;;;;17.77;13.30;;;;;;;2.17;100.00;100943.53;4960459;28;20057;-46
2022/12/11 07:16:12;;;;;;;20.02;13.38;;;;;;;2.16;100.00;100953.44;4982259;28;20521;-46
2022/12/11 07:18:42;;;;;;;18.80;12.93;;;;;;;2.16;100.00;100950.75;4974196;28;20553;-49
2022/12/11 07:21:11;;;;;;;18.02;12.68;;;;;;;2.17;100.00;100949.75;4973481;28;20046;-48
2022/12/11 07:23:39;;;;;;;18.73;13.45;;;;;;;2.19;100.00;100954.88;4958621;28;20030;-46
2022/12/11 07:26:09;;;;;;;19.05;13.50;;;;;;;2.21;100.00;100966.25;4986070;28;20034;-47
2022/12/11 07:28:37;;;;;;;18.65;12.88;;;;;;;2.20;100.00;100967.31;4976496;28;20051;-48
2022/12/11 07:31:10;;;;;;;17.38;12.70;;;;;;;2.20;100.00;100961.94;4974199;28;20066;-47
2022/12/11 07:33:37;;;;;;;17.08;12.80;;;;;;;2.20;100.00;100967.31;4974098;28;20065;-47
2022/12/11 07:36:07;;;;;;;20.02;12.27;;;;;;;2.22;100.00;100970.63;4962440;28;20375;-48
2022/12/11 07:38:34;;;;;;;14.43;10.95;;;;;;;2.24;100.00;100973.94;4982064;28;20433;-48
2022/12/11 07:41:07;;;;;;;17.90;12.20;;;;;;;2.23;100.00;100967.69;4982940;28;20049;-47
2022/12/11 07:43:35;;;;;;;16.33;12.10;;;;;;;2.25;100.00;100972.88;5004485;28;20030;-50
2022/12/11 07:46:09;;;;;;;17.17;12.40;;;;;;;2.26;100.00;100971.81;5016970;28;20041;-47
2022/12/11 07:48:38;;;;;;;16.63;11.70;;;;;;;2.29;100.00;100980.31;4972201;28;20044;-48
2022/12/11 07:51:26;;;;;;;17.92;12.05;;;;;;;2.29;100.00;100976.81;5016335;28;20404;-48
2022/12/11 07:54:15;;;;;;;17.42;11.88;;;;;;;2.30;100.00;100978.44;4999737;28;20050;-46
2022/12/11 07:56:44;;;;;;;15.63;11.45;;;;;;;2.30;100.00;100979.28;5016922;28;20504;-49
2022/12/11 07:59:19;;;;;;;17.52;12.35;;;;;;;2.29;100.00;100985.69;4986488;28;20058;-48
2022/12/11 08:01:47;;;;;;;17.38;12.73;;;;;;;2.29;100.00;100982.19;5016515;28;20045;-49
2022/12/11 08:04:15;;;;;;;15.70;11.80;;;;;;;2.29;100.00;100977.63;4999319;28;20067;-49
2022/12/11 08:06:43;;;;;;;16.95;11.88;;;;;;;2.31;100.00;100980.13;5004063;28;20038;-50
2022/12/11 08:09:13;;;;;;;17.13;10.95;;;;;;;2.33;100.00;100975.34;4986117;28;20042;-49
2022/12/11 08:11:50;;;;;;;18.42;12.95;;;;;;;2.32;100.00;100971.81;4977905;28;20070;-49
2022/12/11 08:14:18;;;;;;;15.27;11.63;;;;;;;2.33;100.00;100972.66;4968441;28;20051;-48
2022/12/11 08:16:47;;;;;;;14.48;10.18;;;;;;;2.37;100.00;100970.38;4989521;28;20101;-48
2022/12/11 08:19:15;;;;;;;16.40;11.70;;;;;;;2.36;100.00;100966.88;4977451;28;20038;-47
2022/12/11 08:21:43;;;;;;;16.08;12.02;;;;;;;2.36;100.00;100966.88;4957029;28;20065;-52
2022/12/11 08:24:10;;;;;;;14.05;10.52;;;;;;;2.38;100.00;100959.41;4977667;28;20049;-51
2022/12/11 08:26:39;;;;;;;16.77;11.82;;;;;;;2.37;100.00;100963.13;4982216;28;20062;-50
2022/12/11 08:29:06;;;;;;;17.05;12.13;;;;;;;2.38;100.00;100964.78;4977662;28;20049;-47
2022/12/11 08:31:34;;;;;;;16.85;12.20;;;;;;;2.37;100.00;100963.13;4977601;28;20520;-49
2022/12/11 08:34:02;;;;;;;15.23;10.45;;;;;;;2.37;100.00;100968.50;4990519;28;20070;-49
2022/12/11 08:36:29;;;;;;;17.90;12.02;;;;;;;2.37;100.00;100971.19;4981189;28;20090;-49
2022/12/11 08:38:57;;;;;;;18.00;12.57;;;;;;;2.37;100.00;100965.00;4976856;28;20101;-49
2022/12/11 08:41:29;;;;;;;17.05;11.95;;;;;;;2.36;100.00;100969.56;4966623;28;20054;-48
2022/12/11 08:43:59;;;;;;;16.23;11.68;;;;;;;2.36;100.00;100961.50;4976192;28;20118;-45
2022/12/11 08:46:29;;;;;;;19.25;12.90;;;;;;;2.36;100.00;100966.88;4977043;28;20096;-45
2022/12/11 08:48:58;;;;;;;16.50;11.80;;;;;;;2.38;100.00;100964.78;4978385;28;20042;-47
2022/12/11 08:51:27;;;;;;;19.90;14.05;;;;;;;2.40;100.00;100957.31;4995080;28;20050;-46
2022/12/11 08:53:56;;;;;;;15.55;11.40;;;;;;;2.40;100.00;100957.31;4978626;28;20042;-49
2022/12/11 08:56:24;;;;;;;15.23;10.82;;;;;;;2.42;100.00;100960.63;4978135;28;20039;-49
2022/12/11 08:58:52;;;;;;;15.38;10.60;;;;;;;2.41;100.00;100960.88;4995402;28;20567;-48
2022/12/11 09:01:22;;;;;;;16.35;11.85;;;;;;;2.40;100.00;100962.69;4968987;28;20046;-47
2022/12/11 09:03:51;;;;;;;18.52;13.27;;;;;;;2.34;100.00;100961.69;4993150;28;20065;-48
2022/12/11 09:06:21;;;;;;;19.52;13.50;;;;;;;2.26;100.00;100956.56;4993416;28;20092;-48
2022/12/11 09:08:51;;;;;;;20.10;14.65;;;;;;;2.25;100.00;100951.38;4986870;28;20039;-49
2022/12/11 09:11:26;;;;;;;21.10;14.82;;;;;;;2.21;100.00;100959.00;4976338;28;20057;-48
2022/12/11 09:13:54;;;;;;;18.95;13.98;;;;;;;2.19;100.00;100950.38;4976403;28;20505;-47
2022/12/11 09:16:23;;;;;;;21.25;13.25;;;;;;;2.26;100.00;100950.31;4984360;28;20038;-45
2022/12/11 09:18:53;;;;;;;24.35;12.95;;;;;;;2.33;100.00;100951.13;4988751;28;20039;-47
2022/12/11 09:21:23;;;;;;;21.42;13.43;;;;;;;2.39;100.00;100950.31;4975915;28;20042;-47
2022/12/11 09:23:56;;;;;;;26.50;13.02;;;;;;;2.41;100.00;100952.78;4964652;28;20045;-49
2022/12/11 09:26:24;;;;;;;18.80;13.75;;;;;;;2.37;100.00;100946.19;4982541;28;20039;-46
2022/12/11 09:28:52;;;;;;;24.52;12.93;;;;;;;2.41;100.00;100950.94;4975933;28;20042;-49
2022/12/11 09:31:23;;;;;;;22.27;14.52;;;;;;;2.41;100.00;100959.00;4953866;28;20058;-48
2022/12/11 09:33:53;;;;;;;20.10;12.15;;;;;;;2.41;100.00;100953.63;4978277;28;20097;-49
2022/12/11 09:36:20;;;;;;;20.42;14.05;;;;;;;2.41;100.00;100956.31;4958489;28;20043;-48
2022/12/11 09:38:48;;;;;;;20.88;14.00;;;;;;;2.42;100.00;100955.25;4975752;28;20046;-54
2022/12/11 09:41:22;;;;;;;19.40;12.70;;;;;;;2.42;100.00;100959.81;4976000;28;20046;-49
2022/12/11 09:44:01;;;;;;;19.98;12.57;;;;;;;2.44;100.00;100958.56;4979737;28;20088;-49
2022/12/11 09:46:29;;;;;;;19.45;11.50;;;;;;;2.49;100.00;100961.44;4985380;28;20057;-46
2022/12/11 09:49:02;;;;;;;18.90;11.95;;;;;;;2.53;100.00;100964.56;4998343;28;20057;-49
2022/12/11 09:51:41;;;;;;;20.73;11.88;;;;;;;2.52;100.00;100955.63;5014478;28;20049;-47
2022/12/11 09:54:12;;;;;;;18.98;13.18;;;;;;;2.48;100.00;100953.59;4981137;28;20064;-49
2022/12/11 09:56:54;;;;;;;19.35;13.48;;;;;;;2.44;100.00;100947.00;4977702;28;20050;-46
2022/12/11 09:59:31;;;;;;;18.58;12.52;;;;;;;2.44;100.00;100947.81;4989847;28;20060;-50
2022/12/11 10:02:21;;;;;;;18.65;13.63;;;;;;;2.43;100.00;100943.47;5013249;28;20099;-49
2022/12/11 10:05:17;;;;;;;18.65;12.90;;;;;;;2.44;100.00;100952.38;5004552;28;20088;-51
2022/12/11 10:07:51;;;;;;;18.38;11.13;;;;;;;2.47;100.00;100944.69;4997101;28;20038;-47
2022/12/11 10:10:46;;;;;;;18.52;11.05;;;;;;;2.51;100.00;100945.94;4961803;28;20109;-47
2022/12/11 10:13:16;;;;;;;18.40;12.25;;;;;;;2.50;100.00;100951.50;4978858;28;20053;-48
2022/12/11 10:15:56;;;;;;;18.52;12.77;;;;;;;2.50;100.00;100936.22;5003024;28;20046;-54
2022/12/11 10:18:26;;;;;;;19.38;10.02;;;;;;;2.61;100.00;100952.72;4998483;28;20074;-51
2022/12/11 10:20:55;;;;;;;19.85;13.30;;;;;;;2.55;100.00;100947.16;4997701;28;20074;-50
2022/12/11 10:23:28;;;;;;;20.30;12.98;;;;;;;2.56;100.00;100940.72;4979381;28;20050;-48
2022/12/11 10:26:07;;;;;;;18.45;11.85;;;;;;;2.48;100.00;100942.84;4986457;28;20038;-46
2022/12/11 10:28:35;;;;;;;18.42;12.15;;;;;;;2.49;100.00;100944.50;4980629;28;20042;-48
2022/12/11 10:31:14;;;;;;;17.08;11.07;;;;;;;2.51;100.00;100943.25;5013995;28;20045;-45
2022/12/11 10:33:58;;;;;;;20.10;13.55;;;;;;;2.53;100.00;100938.47;4990327;28;20046;-46
2022/12/11 10:36:32;;;;;;;19.35;13.45;;;;;;;2.41;100.00;100933.97;4996869;28;20054;-49
2022/12/11 10:39:01;;;;;;;16.65;10.70;;;;;;;2.47;100.00;100942.00;5014364;28;20381;-49
2022/12/11 10:41:40;;;;;;;17.77;11.63;;;;;;;2.49;100.00;100939.09;4996283;28;20042;-48
2022/12/11 10:44:27;;;;;;;20.40;13.30;;;;;;;2.56;100.00;100939.91;4969095;28;20043;-47
2022/12/11 10:47:12;;;;;;;21.98;11.32;;;;;;;2.62;100.00;100938.22;5013930;28;20088;-49
2022/12/11 10:49:52;;;;;;;18.95;13.18;;;;;;;2.58;100.00;100937.03;5013901;28;20030;-50
2022/12/11 10:52:25;;;;;;;18.27;12.68;;;;;;;2.52;100.00;100933.31;5012647;28;20215;-49
2022/12/11 10:55:00;;;;;;;19.48;11.55;;;;;;;2.58;100.00;100935.16;4993010;28;20076;-47
2022/12/11 10:57:34;;;;;;;21.55;14.30;;;;;;;2.63;100.00;100929.13;5012337;28;20045;-47
2022/12/11 11:00:05;;;;;;;18.65;12.60;;;;;;;2.62;100.00;100916.72;4995931;28;20066;-45
2022/12/11 11:02:41;;;;;;;19.00;13.20;;;;;;;2.55;100.00;100925.66;4992124;28;20045;-46
2022/12/11 11:05:28;;;;;;;21.88;13.88;;;;;;;2.49;100.00;100918.41;5010925;28;20121;-46
2022/12/11 11:08:18;;;;;;;20.20;13.77;;;;;;;2.47;100.00;100915.09;5010678;28;20088;-49
2022/12/11 11:10:54;;;;;;;20.08;13.85;;;;;;;2.48;100.00;100921.34;4971593;28;20063;-48
2022/12/11 11:13:23;;;;;;;;;;;;;;;2.47;100.00;100917.78;5005374;28;20046;-46
2022/12/11 11:16:00;;;;;;;19.50;13.43;;;;;;;2.49;100.00;100920.28;4976200;28;19921;-48
2022/12/11 11:18:29;;;;;;;20.55;13.43;;;;;;;2.50;100.00;100920.09;4997610;28;20065;-50
2022/12/11 11:20:57;;;;;;;19.65;13.65;;;;;;;2.50;100.00;100916.53;4995745;28;20041;-48
2022/12/11 11:23:25;;;;;;;19.30;12.30;;;;;;;2.52;100.00;100917.97;5010562;28;20500;-49
2022/12/11 11:25:58;;;;;;;20.02;13.57;;;;;;;2.52;100.00;100915.28;5012957;28;20050;-48
2022/12/11 11:28:47;;;;;;;18.88;10.38;;;;;;;2.56;100.00;100919.22;5012115;28;20042;-49
2022/12/11 11:31:16;;;;;;;20.30;10.00;;;;;;;2.83;100.00;100913.72;5012835;28;20049;-48
2022/12/11 11:33:55;;;;;;;20.35;9.38;;;;;;;2.87;100.00;100914.13;4998979;28;20049;-51
2022/12/11 11:36:29;;;;;;;21.23;14.07;;;;;;;2.75;100.00;100913.97;5012190;28;20060;-47
2022/12/11 11:39:15;;;;;;;19.73;11.65;;;;;;;2.76;100.00;100907.53;5012872;28;20055;-49